Airfield :
LOGIN :

Register | Disclaimer

   EN    FR    IT 

 










Legend :    VFR   Marginal VFR   IFR   Intensive IFR   Very Intensive IFR
Visi :
Ceiling :
>= 8 km
>= 3000ft
5 to 8 km
1000 to 3000 ft
1500m to 5 km
500 to 1000 ft
800 to 1500m
200 to 500 ft
< 800m
< 200 ft
Symbols :   Thunderstorms  Fog  Heavy snow  Heavy precipitations  Wind > 20 kt
SIGMETs :     Misc.  Thunderstorms  Icing  Turbulence  Mountain Waves  Volcanic Ashes






- Airport Elevation : 162 ft
- IATA code : BOD


LFBD - Bordeaux / Merignac

CURRENT METAR :
  • 070930Z AUTO VRB02KT 9999 FEW022 BKN056 OVC072 16/08 Q1013 TEMPO SCT030TCU BKN040

EXPIRED METARs :
  • 070900Z AUTO 04003KT 310V090 CAVOK 15/10 Q1013 TEMPO SCT030TCU BKN040
  • 070830Z AUTO 02005KT 350V050 9999 FEW031 SCT041 BKN052 13/09 Q1013 TEMPO 28015G25KT BKN020TCU
  • 070800Z AUTO 33010KT 9999 FEW019 BKN033 OVC046 14/09 Q1013 TEMPO 28015G25KT BKN020TCU
  • 070730Z AUTO VRB02KT 9999 FEW038 SCT045 OVC060 15/07 Q1012 TEMPO 28015G25KT BKN020TCU
  • 070700Z AUTO 21004KT 170V230 9999 FEW041 OVC060 13/08 Q1012 NOSIG

TAF AMD TAF LFBD
Valid from the 07 at 08:00 until the 08 at 12:00 UTC


070815Z 0708/0812 32010KT 9999 BKN040 TX19/0714Z TN10/0803Z
PROB30
TEMPO 0709/0715 -SHRA SCT030TCU BKN040
TEMPO 0722/0810 VRB02KT
TEMPO 0810/0812 -SHRA BKN020TCU
ATIS : +33 5 57 92 81 04



MET'MAP, your aeronautical weather chart ! - Copyright ORBIFLY December 2007 - Disclaimer

ORBIFLY MET'MAP TEAM :

Programming & Development : Alexandra Zaïnal
Concept & original design : Baudouin d'Aumeries
Assistance for programming : Marc-Olivier Méhu
Technical & hardware support : Manuel Goepfert

Contact : metmap@orbifly.com




SOURCES & CREDITS :

   NOAA